createdAt,value
2022-12-15T00:00:02.927Z,999.55
2022-12-15T00:01:03.031Z,999.55
2022-12-15T00:02:03.040Z,999.53
2022-12-15T00:03:03.006Z,999.51
2022-12-15T00:04:02.880Z,999.51
2022-12-15T00:05:02.768Z,999.55
2022-12-15T00:06:02.740Z,999.54
2022-12-15T00:07:02.757Z,999.59
2022-12-15T00:08:02.677Z,999.60
2022-12-15T00:09:02.640Z,999.58
2022-12-15T00:10:02.611Z,999.61
2022-12-15T00:11:02.576Z,999.59
2022-12-15T00:12:02.551Z,999.64
2022-12-15T00:13:02.513Z,999.56
2022-12-15T00:14:02.488Z,999.60
2022-12-15T00:15:02.451Z,999.59
2022-12-15T00:16:02.506Z,999.62
2022-12-15T00:17:02.410Z,999.69
2022-12-15T00:18:02.358Z,999.75
2022-12-15T00:19:02.363Z,999.72
2022-12-15T00:20:02.301Z,999.71
2022-12-15T00:21:02.259Z,999.74
2022-12-15T00:22:02.233Z,999.79
2022-12-15T00:23:02.200Z,999.81
2022-12-15T00:24:02.178Z,999.79
2022-12-15T00:25:02.136Z,999.82
2022-12-15T00:26:02.109Z,999.80
2022-12-15T00:27:02.074Z,999.85
2022-12-15T00:28:02.051Z,999.84
2022-12-15T00:29:02.016Z,999.85
2022-12-15T00:30:01.985Z,999.87
2022-12-15T00:31:02.688Z,999.90
2022-12-15T00:32:01.982Z,999.87
2022-12-15T00:33:01.914Z,999.84
2022-12-15T00:34:01.863Z,999.80
2022-12-15T00:35:01.822Z,999.79
2022-12-15T00:36:01.798Z,999.78
2022-12-15T00:37:01.763Z,999.77
2022-12-15T00:38:01.731Z,999.79
2022-12-15T00:39:03.936Z,999.75
2022-12-15T00:40:01.676Z,999.77
2022-12-15T00:41:01.640Z,999.79
2022-12-15T00:42:01.607Z,999.83
2022-12-15T00:43:01.573Z,999.84
2022-12-15T00:44:01.547Z,999.85
2022-12-15T00:45:01.523Z,999.83
2022-12-15T00:46:01.529Z,999.83
2022-12-15T00:47:01.506Z,999.83
2022-12-15T00:48:01.423Z,999.84
2022-12-15T00:49:01.417Z,999.81
2022-12-15T00:50:01.354Z,999.81
2022-12-15T00:51:01.323Z,999.82
2022-12-15T00:52:01.298Z,999.84
2022-12-15T00:53:01.262Z,999.88
2022-12-15T00:54:01.232Z,999.88
2022-12-15T00:55:01.206Z,999.91
2022-12-15T00:56:01.175Z,999.95
2022-12-15T00:57:01.133Z,999.93
2022-12-15T00:58:01.104Z,999.93
2022-12-15T00:59:01.073Z,999.92
2022-12-15T01:00:01.051Z,999.96
2022-12-15T01:01:01.008Z,999.92
2022-12-15T01:02:01.119Z,999.94
2022-12-15T01:03:01.173Z,999.92
2022-12-15T01:04:00.955Z,999.90
2022-12-15T01:05:00.911Z,999.89
2022-12-15T01:06:00.856Z,999.87
2022-12-15T01:07:00.825Z,999.85
2022-12-15T01:08:00.791Z,999.91
2022-12-15T01:09:00.764Z,999.92
2022-12-15T01:10:00.730Z,999.86
2022-12-15T01:11:00.698Z,999.85
2022-12-15T01:12:00.667Z,999.83
2022-12-15T01:13:00.641Z,999.80
2022-12-15T01:14:00.609Z,999.85
2022-12-15T01:15:00.587Z,999.86
2022-12-15T01:16:00.600Z,999.90
2022-12-15T01:17:00.508Z,999.93
2022-12-15T01:18:00.482Z,999.95
2022-12-15T01:19:00.451Z,999.95
2022-12-15T01:20:00.420Z,999.94
2022-12-15T01:21:00.403Z,999.90
2022-12-15T01:22:00.362Z,999.89
2022-12-15T01:23:00.322Z,999.94
2022-12-15T01:24:00.291Z,999.89
2022-12-15T01:25:00.268Z,999.90
2022-12-15T01:26:00.227Z,999.92
2022-12-15T01:27:00.196Z,999.90
2022-12-15T01:28:00.175Z,999.93
2022-12-15T01:29:00.130Z,999.91
2022-12-15T01:30:00.101Z,999.92
2022-12-15T01:31:00.162Z,999.92
2022-12-15T01:32:00.118Z,999.94
2022-12-15T01:33:00.008Z,999.98
2022-12-15T01:33:59.982Z,1000.01
2022-12-15T01:34:59.943Z,1000.01
2022-12-15T01:35:59.925Z,1000.04
2022-12-15T01:37:00.010Z,1000.05
2022-12-15T01:37:59.855Z,1000.03
2022-12-15T01:38:59.823Z,1000.05
2022-12-15T01:39:59.795Z,1000.06
2022-12-15T01:40:59.759Z,1000.03
2022-12-15T01:41:59.728Z,1000.05
2022-12-15T01:42:59.700Z,1000.08
2022-12-15T01:43:59.667Z,1000.10
2022-12-15T01:44:59.633Z,1000.11
2022-12-15T01:45:59.604Z,1000.12
2022-12-15T01:46:59.677Z,1000.09
2022-12-15T01:47:59.545Z,1000.10
2022-12-15T01:48:59.512Z,1000.08
2022-12-15T01:49:59.484Z,1000.11
2022-12-15T01:50:59.441Z,1000.14
2022-12-15T01:51:59.423Z,1000.15
2022-12-15T01:52:59.404Z,1000.15
2022-12-15T01:53:59.355Z,1000.11
2022-12-15T01:54:59.315Z,1000.18
2022-12-15T01:55:59.290Z,1000.15
2022-12-15T01:56:59.261Z,1000.16
2022-12-15T01:57:59.227Z,1000.21
2022-12-15T01:58:59.194Z,1000.20
2022-12-15T01:59:59.169Z,1000.24
2022-12-15T02:00:59.198Z,1000.26
2022-12-15T02:01:59.307Z,1000.23
2022-12-15T02:02:59.287Z,1000.23
2022-12-15T02:03:59.036Z,1000.24
2022-12-15T02:04:59.009Z,1000.25
2022-12-15T02:05:58.976Z,1000.23
2022-12-15T02:06:58.944Z,1000.26
2022-12-15T02:07:58.922Z,1000.29
2022-12-15T02:08:59.126Z,1000.26
2022-12-15T02:09:58.868Z,1000.32
2022-12-15T02:10:58.819Z,1000.31
2022-12-15T02:11:58.813Z,1000.26
2022-12-15T02:12:58.760Z,1000.28
2022-12-15T02:13:58.728Z,1000.27
2022-12-15T02:14:58.696Z,1000.28
2022-12-15T02:15:58.723Z,1000.30
2022-12-15T02:16:58.632Z,1000.29
2022-12-15T02:17:58.599Z,1000.29
2022-12-15T02:18:58.565Z,1000.31
2022-12-15T02:19:58.540Z,1000.32
2022-12-15T02:20:58.505Z,1000.31
2022-12-15T02:21:58.478Z,1000.31
2022-12-15T02:22:58.442Z,1000.33
2022-12-15T02:23:58.417Z,1000.34
2022-12-15T02:24:58.408Z,1000.36
2022-12-15T02:25:58.352Z,1000.36
2022-12-15T02:26:58.319Z,1000.31
2022-12-15T02:27:58.290Z,1000.35
2022-12-15T02:28:58.254Z,1000.36
2022-12-15T02:29:58.248Z,1000.39
2022-12-15T02:30:58.190Z,1000.40
2022-12-15T02:31:58.283Z,1000.41
2022-12-15T02:32:58.125Z,1000.41
2022-12-15T02:33:58.100Z,1000.41
2022-12-15T02:34:58.065Z,1000.42
2022-12-15T02:35:58.041Z,1000.40
2022-12-15T02:36:58.004Z,1000.46
2022-12-15T02:37:57.976Z,1000.47
2022-12-15T02:38:57.940Z,1000.46
2022-12-15T02:39:57.916Z,1000.52
2022-12-15T02:40:57.901Z,1000.49
2022-12-15T02:41:57.861Z,1000.56
2022-12-15T02:42:57.814Z,1000.58
2022-12-15T02:43:57.790Z,1000.56
2022-12-15T02:44:57.755Z,1000.58
2022-12-15T02:45:57.823Z,1000.53
2022-12-15T02:46:57.687Z,1000.51
2022-12-15T02:47:57.656Z,1000.53
2022-12-15T02:48:57.627Z,1000.52
2022-12-15T02:49:57.796Z,1000.52
2022-12-15T02:50:57.566Z,1000.51
2022-12-15T02:51:57.531Z,1000.54
2022-12-15T02:52:57.507Z,1000.54
2022-12-15T02:53:57.475Z,1000.56
2022-12-15T02:54:57.445Z,1000.57
2022-12-15T02:55:57.403Z,1000.60
2022-12-15T02:56:57.413Z,1000.58
2022-12-15T02:57:57.341Z,1000.54
2022-12-15T02:58:57.319Z,1000.52
2022-12-15T02:59:57.289Z,1000.52
2022-12-15T03:00:57.347Z,1000.51
2022-12-15T03:01:57.446Z,1000.53
2022-12-15T03:02:57.312Z,1000.52
2022-12-15T03:03:57.156Z,1000.52
2022-12-15T03:04:57.131Z,1000.54
2022-12-15T03:05:57.092Z,1000.52
2022-12-15T03:07:00.829Z,1000.53
2022-12-15T03:07:57.047Z,1000.56
2022-12-15T03:08:57.004Z,1000.55
2022-12-15T03:09:56.970Z,1000.52
2022-12-15T03:10:56.942Z,1000.52
2022-12-15T03:11:56.909Z,1000.55
2022-12-15T03:12:56.902Z,1000.51
2022-12-15T03:13:56.845Z,1000.53
2022-12-15T03:14:56.815Z,1000.54
2022-12-15T03:15:56.787Z,1000.57
2022-12-15T03:16:56.837Z,1000.58
2022-12-15T03:17:56.718Z,1000.62
2022-12-15T03:18:56.693Z,1000.66
2022-12-15T03:19:56.652Z,1000.67
2022-12-15T03:20:56.630Z,1000.70
2022-12-15T03:21:56.589Z,1000.71
2022-12-15T03:22:56.562Z,1000.69
2022-12-15T03:23:56.529Z,1000.71
2022-12-15T03:24:56.498Z,1000.74
2022-12-15T03:25:56.465Z,1000.71
2022-12-15T03:26:56.435Z,1000.74
2022-12-15T03:27:56.409Z,1000.73
2022-12-15T03:28:56.402Z,1000.74
2022-12-15T03:29:56.341Z,1000.79
2022-12-15T03:30:56.320Z,1000.73
2022-12-15T03:31:56.368Z,1000.75
2022-12-15T03:32:56.249Z,1000.73
2022-12-15T03:33:56.210Z,1000.74
2022-12-15T03:34:56.185Z,1000.78
2022-12-15T03:35:56.149Z,1000.80
2022-12-15T03:36:56.124Z,1000.79
2022-12-15T03:37:56.088Z,1000.81
2022-12-15T03:38:56.060Z,1000.84
2022-12-15T03:39:56.029Z,1000.86
2022-12-15T03:40:55.996Z,1000.86
2022-12-15T03:41:55.964Z,1000.85
2022-12-15T03:42:55.938Z,1000.82
2022-12-15T03:43:55.901Z,1000.88
2022-12-15T03:44:55.896Z,1000.91
2022-12-15T03:45:55.974Z,1000.90
2022-12-15T03:47:01.291Z,1000.91
2022-12-15T03:47:55.778Z,1000.89
2022-12-15T03:48:55.750Z,1000.94
2022-12-15T03:49:55.709Z,1000.94
2022-12-15T03:50:55.682Z,1000.94
2022-12-15T03:51:55.647Z,1000.92
2022-12-15T03:52:55.629Z,1000.98
2022-12-15T03:53:55.583Z,1001.01
2022-12-15T03:54:55.557Z,1000.99
2022-12-15T03:55:55.521Z,1001.02
2022-12-15T03:56:55.499Z,1001.02
2022-12-15T03:57:55.463Z,1000.96
2022-12-15T03:58:55.435Z,1000.99
2022-12-15T03:59:55.405Z,1000.97
2022-12-15T04:00:55.485Z,1000.98
2022-12-15T04:01:55.493Z,1001.00
2022-12-15T04:02:55.385Z,1001.01
2022-12-15T04:04:00.228Z,1001.05
2022-12-15T04:04:55.242Z,1001.11
2022-12-15T04:05:55.209Z,1001.09
2022-12-15T04:06:55.180Z,1001.10
2022-12-15T04:07:55.146Z,1001.10
2022-12-15T04:08:55.117Z,1001.08
2022-12-15T04:09:55.086Z,1001.07
2022-12-15T04:10:55.057Z,1001.07
2022-12-15T04:11:55.063Z,1001.06
2022-12-15T04:12:54.992Z,1001.04
2022-12-15T04:13:54.956Z,1001.07
2022-12-15T04:14:54.927Z,1001.04
2022-12-15T04:15:54.896Z,1001.06
2022-12-15T04:16:55.073Z,1001.08
2022-12-15T04:17:54.837Z,1001.10
2022-12-15T04:18:54.809Z,1001.06
2022-12-15T04:19:54.772Z,1001.08
2022-12-15T04:20:54.745Z,1001.11
2022-12-15T04:21:54.709Z,1001.10
2022-12-15T04:22:54.687Z,1001.15
2022-12-15T04:23:54.644Z,1001.17
2022-12-15T04:24:54.615Z,1001.12
2022-12-15T04:25:54.584Z,1001.15
2022-12-15T04:26:54.552Z,1001.19
2022-12-15T04:27:59.846Z,1001.17
2022-12-15T04:28:54.493Z,1001.09
2022-12-15T04:29:54.456Z,1001.12
2022-12-15T04:30:54.450Z,1001.08
2022-12-15T04:31:54.392Z,1001.08
2022-12-15T04:32:54.389Z,1001.12
2022-12-15T04:33:54.327Z,1001.15
2022-12-15T04:34:54.301Z,1001.18
2022-12-15T04:35:54.267Z,1001.17
2022-12-15T04:36:54.237Z,1001.17
2022-12-15T04:37:54.202Z,1001.17
2022-12-15T04:38:54.174Z,1001.15
2022-12-15T04:39:54.142Z,1001.13
2022-12-15T04:40:54.113Z,1001.12
2022-12-15T04:41:54.080Z,1001.12
2022-12-15T04:42:54.051Z,1001.10
2022-12-15T04:43:54.015Z,1001.07
2022-12-15T04:44:53.986Z,1001.06
2022-12-15T04:45:54.018Z,1001.01
2022-12-15T04:46:53.931Z,1001.02
2022-12-15T04:47:53.896Z,1000.99
2022-12-15T04:48:53.881Z,1001.00
2022-12-15T04:49:53.831Z,1001.01
2022-12-15T04:50:53.800Z,1001.03
2022-12-15T04:51:53.765Z,1001.04
2022-12-15T04:52:53.738Z,1001.12
2022-12-15T04:53:53.702Z,1001.12
2022-12-15T04:54:53.671Z,1001.13
2022-12-15T04:55:53.641Z,1001.15
2022-12-15T04:56:53.612Z,1001.13
2022-12-15T04:57:53.578Z,1001.12
2022-12-15T04:58:53.550Z,1001.14
2022-12-15T04:59:53.514Z,1001.09
2022-12-15T05:00:53.482Z,1001.08
2022-12-15T05:01:53.761Z,1001.15
2022-12-15T05:02:53.419Z,1001.15
2022-12-15T05:03:53.499Z,1001.15
2022-12-15T05:04:53.471Z,1001.15
2022-12-15T05:05:53.327Z,1001.21
2022-12-15T05:06:53.295Z,1001.20
2022-12-15T05:07:53.259Z,1001.23
2022-12-15T05:08:53.233Z,1001.23
2022-12-15T05:09:53.201Z,1001.22
2022-12-15T05:10:53.171Z,1001.25
2022-12-15T05:11:53.131Z,1001.25
2022-12-15T05:12:53.106Z,1001.26
2022-12-15T05:13:53.070Z,1001.29
2022-12-15T05:14:53.039Z,1001.35
2022-12-15T05:15:53.062Z,1001.38
2022-12-15T05:16:53.016Z,1001.40
2022-12-15T05:17:52.956Z,1001.40
2022-12-15T05:18:52.917Z,1001.43
2022-12-15T05:19:52.879Z,1001.43
2022-12-15T05:20:52.877Z,1001.45
2022-12-15T05:21:52.814Z,1001.43
2022-12-15T05:22:52.792Z,1001.40
2022-12-15T05:23:52.754Z,1001.39
2022-12-15T05:24:52.728Z,1001.40
2022-12-15T05:25:52.691Z,1001.43
2022-12-15T05:26:53.476Z,1001.39
2022-12-15T05:27:52.630Z,1001.39
2022-12-15T05:28:52.599Z,1001.40
2022-12-15T05:29:52.561Z,1001.39
2022-12-15T05:30:52.576Z,1001.38
2022-12-15T05:31:52.505Z,1001.42
2022-12-15T05:32:52.475Z,1001.42
2022-12-15T05:33:52.443Z,1001.44
2022-12-15T05:34:52.410Z,1001.41
2022-12-15T05:35:52.377Z,1001.42
2022-12-15T05:36:52.370Z,1001.41
2022-12-15T05:37:52.317Z,1001.43
2022-12-15T05:38:52.284Z,1001.41
2022-12-15T05:39:52.252Z,1001.45
2022-12-15T05:40:52.220Z,1001.45
2022-12-15T05:41:52.190Z,1001.45
2022-12-15T05:42:52.158Z,1001.42
2022-12-15T05:43:52.124Z,1001.49
2022-12-15T05:44:52.096Z,1001.45
2022-12-15T05:45:52.094Z,1001.44
2022-12-15T05:46:52.152Z,1001.45
2022-12-15T05:47:51.999Z,1001.46
2022-12-15T05:48:51.971Z,1001.46
2022-12-15T05:49:51.942Z,1001.49
2022-12-15T05:50:51.905Z,1001.48
2022-12-15T05:51:51.876Z,1001.50
2022-12-15T05:52:51.874Z,1001.51
2022-12-15T05:53:51.813Z,1001.53
2022-12-15T05:54:51.784Z,1001.55
2022-12-15T05:55:51.745Z,1001.57
2022-12-15T05:56:51.722Z,1001.52
2022-12-15T05:57:51.680Z,1001.58
2022-12-15T05:58:51.656Z,1001.62
2022-12-15T05:59:51.624Z,1001.65
2022-12-15T06:00:51.594Z,1001.61
2022-12-15T06:01:51.700Z,1001.65
2022-12-15T06:02:51.631Z,1001.64
2022-12-15T06:03:51.496Z,1001.66
2022-12-15T06:04:51.523Z,1001.68
2022-12-15T06:05:56.334Z,1001.67
2022-12-15T06:06:51.402Z,1001.64
2022-12-15T06:07:51.366Z,1001.63
2022-12-15T06:08:51.362Z,1001.62
2022-12-15T06:09:51.305Z,1001.66
2022-12-15T06:10:51.280Z,1001.66
2022-12-15T06:11:51.241Z,1001.61
2022-12-15T06:12:51.209Z,1001.64
2022-12-15T06:13:51.177Z,1001.63
2022-12-15T06:14:51.149Z,1001.71
2022-12-15T06:15:51.146Z,1001.71
2022-12-15T06:16:51.757Z,1001.76
2022-12-15T06:17:51.055Z,1001.75
2022-12-15T06:18:51.021Z,1001.73
2022-12-15T06:19:50.993Z,1001.74
2022-12-15T06:20:50.960Z,1001.74
2022-12-15T06:21:50.928Z,1001.74
2022-12-15T06:22:50.894Z,1001.77
2022-12-15T06:23:50.864Z,1001.79
2022-12-15T06:24:50.861Z,1001.79
2022-12-15T06:25:50.801Z,1001.79
2022-12-15T06:26:50.766Z,1001.79
2022-12-15T06:27:50.740Z,1001.81
2022-12-15T06:28:50.708Z,1001.82
2022-12-15T06:29:50.670Z,1001.80
2022-12-15T06:30:50.642Z,1001.80
2022-12-15T06:31:50.665Z,1001.80
2022-12-15T06:32:50.578Z,1001.77
2022-12-15T06:33:52.491Z,1001.79
2022-12-15T06:34:50.521Z,1001.75
2022-12-15T06:35:50.486Z,1001.79
2022-12-15T06:36:50.480Z,1001.84
2022-12-15T06:37:50.416Z,1001.84
2022-12-15T06:38:50.392Z,1001.85
2022-12-15T06:39:50.356Z,1001.83
2022-12-15T06:40:50.350Z,1001.86
2022-12-15T06:41:50.291Z,1001.83
2022-12-15T06:42:50.265Z,1001.82
2022-12-15T06:43:50.237Z,1001.81
2022-12-15T06:44:50.207Z,1001.81
2022-12-15T06:45:50.174Z,1001.84
2022-12-15T06:46:50.227Z,1001.83
2022-12-15T06:47:50.105Z,1001.84
2022-12-15T06:48:50.078Z,1001.83
2022-12-15T06:49:50.042Z,1001.82
2022-12-15T06:50:50.317Z,1001.84
2022-12-15T06:51:49.984Z,1001.86
2022-12-15T06:52:49.955Z,1001.89
2022-12-15T06:53:49.944Z,1001.86
2022-12-15T06:54:49.882Z,1001.87
2022-12-15T06:55:49.850Z,1001.86
2022-12-15T06:56:50.217Z,1001.86
2022-12-15T06:57:49.787Z,1001.86
2022-12-15T06:58:49.759Z,1001.86
2022-12-15T06:59:49.731Z,1001.87
2022-12-15T07:00:49.710Z,1001.86
2022-12-15T07:01:49.905Z,1001.87
2022-12-15T07:02:50.094Z,1001.84
2022-12-15T07:03:49.892Z,1001.86
2022-12-15T07:04:49.565Z,1001.85
2022-12-15T07:05:49.540Z,1001.84
2022-12-15T07:06:49.513Z,1001.84
2022-12-15T07:07:49.477Z,1001.86
2022-12-15T07:08:49.675Z,1001.87
2022-12-15T07:09:49.409Z,1001.90
2022-12-15T07:10:49.379Z,1001.94
2022-12-15T07:11:49.384Z,1001.92
2022-12-15T07:12:49.360Z,1001.94
2022-12-15T07:13:49.287Z,1001.94
2022-12-15T07:14:53.430Z,1001.96
2022-12-15T07:15:49.268Z,1001.96
2022-12-15T07:16:49.197Z,1001.98
2022-12-15T07:17:49.165Z,1001.97
2022-12-15T07:18:49.133Z,1001.96
2022-12-15T07:19:49.097Z,1002.01
2022-12-15T07:20:49.865Z,1002.04
2022-12-15T07:21:49.039Z,1002.03
2022-12-15T07:22:49.006Z,1002.06
2022-12-15T07:23:57.347Z,1002.11
2022-12-15T07:24:48.939Z,1002.13
2022-12-15T07:25:48.910Z,1002.16
2022-12-15T07:26:49.151Z,1002.14
2022-12-15T07:27:48.848Z,1002.14
2022-12-15T07:28:48.929Z,1002.18
2022-12-15T07:29:48.777Z,1002.16
2022-12-15T07:30:48.748Z,1002.15
2022-12-15T07:31:48.816Z,1002.17
2022-12-15T07:32:50.168Z,1002.18
2022-12-15T07:33:48.834Z,1002.17
2022-12-15T07:34:48.633Z,1002.17
2022-12-15T07:35:48.595Z,1002.20
2022-12-15T07:36:52.118Z,1002.18
2022-12-15T07:37:48.528Z,1002.17
2022-12-15T07:38:50.761Z,1002.15
2022-12-15T07:39:48.466Z,1002.16
2022-12-15T07:40:48.430Z,1002.23
2022-12-15T07:41:48.401Z,1002.20
2022-12-15T07:42:48.375Z,1002.22
2022-12-15T07:43:48.425Z,1002.22
2022-12-15T07:44:49.953Z,1002.22
2022-12-15T07:45:51.448Z,1002.28
2022-12-15T07:46:48.244Z,1002.33
2022-12-15T07:47:48.213Z,1002.34
2022-12-15T07:48:50.333Z,1002.38
2022-12-15T07:49:48.150Z,1002.40
2022-12-15T07:50:48.118Z,1002.40
2022-12-15T07:51:48.099Z,1002.39
2022-12-15T07:52:48.054Z,1002.40
2022-12-15T07:53:48.030Z,1002.40
2022-12-15T07:54:47.993Z,1002.41
2022-12-15T07:56:06.109Z,1002.45
2022-12-15T07:56:50.151Z,1002.47
2022-12-15T07:57:47.901Z,1002.51
2022-12-15T07:58:47.873Z,1002.49
2022-12-15T07:59:47.834Z,1002.53
2022-12-15T08:00:49.063Z,1002.50
2022-12-15T08:01:47.968Z,1002.54
2022-12-15T08:02:47.997Z,1002.54
2022-12-15T08:03:47.748Z,1002.53
2022-12-15T08:04:48.142Z,1002.56
2022-12-15T08:05:47.646Z,1002.53
2022-12-15T08:06:47.613Z,1002.59
2022-12-15T08:07:47.588Z,1002.59
2022-12-15T08:08:50.719Z,1002.61
2022-12-15T08:09:47.527Z,1002.64
2022-12-15T08:10:47.483Z,1002.64
2022-12-15T08:11:47.456Z,1002.66
2022-12-15T08:12:47.428Z,1002.63
2022-12-15T08:14:04.437Z,1002.63
2022-12-15T08:14:50.230Z,1002.69
2022-12-15T08:15:47.332Z,1002.68
2022-12-15T08:16:47.466Z,1002.67
2022-12-15T08:17:47.266Z,1002.67
2022-12-15T08:18:47.233Z,1002.68
2022-12-15T08:19:47.210Z,1002.67
2022-12-15T08:20:50.359Z,1002.68
2022-12-15T08:21:47.143Z,1002.65
2022-12-15T08:22:47.110Z,1002.67
2022-12-15T08:23:47.074Z,1002.67
2022-12-15T08:24:47.042Z,1002.66
2022-12-15T08:25:47.023Z,1002.64
2022-12-15T08:26:49.896Z,1002.63
2022-12-15T08:27:46.956Z,1002.64
2022-12-15T08:28:46.911Z,1002.67
2022-12-15T08:29:51.457Z,1002.65
2022-12-15T08:30:46.853Z,1002.62
2022-12-15T08:31:46.914Z,1002.62
2022-12-15T08:32:51.737Z,1002.60
2022-12-15T08:33:46.761Z,1002.62
2022-12-15T08:34:46.734Z,1002.61
2022-12-15T08:35:56.801Z,1002.61
2022-12-15T08:36:46.671Z,1002.55
2022-12-15T08:37:46.643Z,1002.56
2022-12-15T08:38:46.603Z,1002.57
2022-12-15T08:39:46.580Z,1002.57
2022-12-15T08:40:46.541Z,1002.57
2022-12-15T08:41:46.518Z,1002.62
2022-12-15T08:42:46.478Z,1002.64
2022-12-15T08:43:49.069Z,1002.64
2022-12-15T08:44:46.419Z,1002.70
2022-12-15T08:45:46.461Z,1002.69
2022-12-15T08:46:46.352Z,1002.72
2022-12-15T08:47:46.331Z,1002.68
2022-12-15T08:48:46.312Z,1002.72
2022-12-15T08:49:46.262Z,1002.69
2022-12-15T08:50:46.226Z,1002.72
2022-12-15T08:51:46.204Z,1002.76
2022-12-15T08:53:06.578Z,1002.76
2022-12-15T08:53:46.690Z,1002.77
2022-12-15T08:54:46.103Z,1002.78
2022-12-15T08:55:46.072Z,1002.82
2022-12-15T08:56:46.040Z,1002.85
2022-12-15T08:57:46.013Z,1002.83
2022-12-15T08:58:45.980Z,1002.86
2022-12-15T08:59:45.946Z,1002.87
2022-12-15T09:00:45.965Z,1002.92
2022-12-15T09:01:46.016Z,1002.87
2022-12-15T09:02:45.937Z,1002.90
2022-12-15T09:03:45.829Z,1002.93
2022-12-15T09:04:45.946Z,1002.95
2022-12-15T09:05:45.764Z,1002.97
2022-12-15T09:06:50.359Z,1002.97
2022-12-15T09:07:45.700Z,1002.98
2022-12-15T09:08:48.542Z,1003.02
2022-12-15T09:09:45.648Z,1003.00
2022-12-15T09:10:45.605Z,1003.05
2022-12-15T09:11:45.576Z,1003.03
2022-12-15T09:12:45.536Z,1003.06
2022-12-15T09:13:45.506Z,1003.08
2022-12-15T09:14:45.475Z,1003.06
2022-12-15T09:16:08.891Z,1003.11
2022-12-15T09:16:45.566Z,1003.11
2022-12-15T09:17:45.388Z,1003.11
2022-12-15T09:18:45.350Z,1003.10
2022-12-15T09:19:45.329Z,1003.08
2022-12-15T09:20:45.412Z,1003.10
2022-12-15T09:21:45.263Z,1003.07
2022-12-15T09:22:45.224Z,1003.08
2022-12-15T09:23:45.198Z,1003.08
2022-12-15T09:24:45.164Z,1003.07
2022-12-15T09:25:45.135Z,1003.10
2022-12-15T09:26:45.096Z,1003.07
2022-12-15T09:27:45.073Z,1003.09
2022-12-15T09:28:45.042Z,1003.08
2022-12-15T09:29:45.009Z,1003.04
2022-12-15T09:30:45.012Z,1003.03
2022-12-15T09:31:44.949Z,1003.02
2022-12-15T09:32:44.914Z,1003.03
2022-12-15T09:33:44.898Z,1003.00
2022-12-15T09:34:44.855Z,1003.04
2022-12-15T09:35:44.826Z,1003.07
2022-12-15T09:36:44.809Z,1003.08
2022-12-15T09:37:49.967Z,1003.09
2022-12-15T09:38:44.729Z,1003.05
2022-12-15T09:39:44.701Z,1003.07
2022-12-15T09:40:44.665Z,1003.12
2022-12-15T09:41:44.635Z,1003.12
2022-12-15T09:42:44.973Z,1003.15
2022-12-15T09:43:47.408Z,1003.18
2022-12-15T09:44:44.548Z,1003.18
2022-12-15T09:45:44.573Z,1003.19
2022-12-15T09:46:44.474Z,1003.22
2022-12-15T09:47:44.450Z,1003.25
2022-12-15T09:48:44.415Z,1003.31
2022-12-15T09:49:44.387Z,1003.32
2022-12-15T09:50:44.361Z,1003.37
2022-12-15T09:51:44.321Z,1003.43
2022-12-15T09:52:44.324Z,1003.44
2022-12-15T09:54:00.044Z,1003.49
2022-12-15T09:54:44.328Z,1003.53
2022-12-15T09:55:44.200Z,1003.47
2022-12-15T09:56:44.164Z,1003.48
2022-12-15T09:57:44.140Z,1003.52
2022-12-15T09:58:44.108Z,1003.53
2022-12-15T09:59:44.077Z,1003.49
2022-12-15T10:00:45.752Z,1003.53
2022-12-15T10:01:44.121Z,1003.53
2022-12-15T10:02:44.045Z,1003.56
2022-12-15T10:03:44.052Z,1003.56
2022-12-15T10:04:43.920Z,1003.55
2022-12-15T10:06:07.110Z,1003.54
2022-12-15T10:06:43.855Z,1003.55
2022-12-15T10:07:43.824Z,1003.54
2022-12-15T10:08:43.818Z,1003.50
2022-12-15T10:09:43.762Z,1003.55
2022-12-15T10:10:43.737Z,1003.54
2022-12-15T10:11:43.704Z,1003.56
2022-12-15T10:12:54.817Z,1003.57
2022-12-15T10:13:43.644Z,1003.58
2022-12-15T10:14:43.606Z,1003.58
2022-12-15T10:15:43.619Z,1003.61
2022-12-15T10:16:43.547Z,1003.59
2022-12-15T10:17:43.514Z,1003.58
2022-12-15T10:18:43.480Z,1003.55
2022-12-15T10:19:43.458Z,1003.56
2022-12-15T10:20:43.417Z,1003.55
2022-12-15T10:21:43.395Z,1003.52
2022-12-15T10:22:43.356Z,1003.53
2022-12-15T10:23:43.401Z,1003.54
2022-12-15T10:25:11.950Z,1003.58
2022-12-15T10:25:43.267Z,1003.59
2022-12-15T10:26:43.229Z,1003.57
2022-12-15T10:27:43.207Z,1003.61
2022-12-15T10:28:43.169Z,1003.58
2022-12-15T10:29:43.245Z,1003.59
2022-12-15T10:30:43.164Z,1003.59
2022-12-15T10:31:43.085Z,1003.60
2022-12-15T10:32:43.210Z,1003.58
2022-12-15T10:33:48.574Z,1003.56
2022-12-15T10:34:43.036Z,1003.55
2022-12-15T10:35:42.970Z,1003.57
2022-12-15T10:36:42.922Z,1003.50
2022-12-15T10:37:42.895Z,1003.51
2022-12-15T10:38:42.863Z,1003.54
2022-12-15T10:39:42.833Z,1003.54
2022-12-15T10:40:42.827Z,1003.50
2022-12-15T10:41:42.776Z,1003.53
2022-12-15T10:42:42.737Z,1003.52
2022-12-15T10:43:42.710Z,1003.50
2022-12-15T10:44:42.677Z,1003.53
2022-12-15T10:45:42.653Z,1003.55
2022-12-15T10:46:42.724Z,1003.56
2022-12-15T10:47:42.587Z,1003.57
2022-12-15T10:48:42.545Z,1003.61
2022-12-15T10:49:42.521Z,1003.61
2022-12-15T10:50:42.490Z,1003.64
2022-12-15T10:51:42.475Z,1003.64
2022-12-15T10:52:42.425Z,1003.67
2022-12-15T10:53:42.398Z,1003.67
2022-12-15T10:54:42.376Z,1003.70
2022-12-15T10:55:42.442Z,1003.68
2022-12-15T10:56:42.337Z,1003.62
2022-12-15T10:57:42.278Z,1003.63
2022-12-15T10:58:42.245Z,1003.59
2022-12-15T10:59:42.215Z,1003.56
2022-12-15T11:00:42.174Z,1003.56
2022-12-15T11:01:42.282Z,1003.56
2022-12-15T11:02:42.377Z,1003.55
2022-12-15T11:03:42.378Z,1003.56
2022-12-15T11:04:42.060Z,1003.54
2022-12-15T11:05:42.071Z,1003.56
2022-12-15T11:06:41.995Z,1003.58
2022-12-15T11:07:41.967Z,1003.57
2022-12-15T11:08:41.933Z,1003.61
2022-12-15T11:09:41.903Z,1003.64
2022-12-15T11:10:41.870Z,1003.67
2022-12-15T11:11:45.107Z,1003.65
2022-12-15T11:12:41.831Z,1003.63
2022-12-15T11:13:42.442Z,1003.65
2022-12-15T11:14:41.753Z,1003.62
2022-12-15T11:15:41.888Z,1003.62
2022-12-15T11:16:41.689Z,1003.64
2022-12-15T11:17:41.665Z,1003.63
2022-12-15T11:18:41.623Z,1003.60
2022-12-15T11:19:41.593Z,1003.60
2022-12-15T11:20:41.567Z,1003.63
2022-12-15T11:21:41.535Z,1003.63
2022-12-15T11:22:41.506Z,1003.62
2022-12-15T11:23:46.637Z,1003.58
2022-12-15T11:24:41.444Z,1003.58
2022-12-15T11:25:41.414Z,1003.54
2022-12-15T11:26:41.383Z,1003.60
2022-12-15T11:27:41.353Z,1003.53
2022-12-15T11:28:41.341Z,1003.51
2022-12-15T11:29:41.297Z,1003.48
2022-12-15T11:30:41.259Z,1003.49
2022-12-15T11:31:41.241Z,1003.46
2022-12-15T11:32:41.200Z,1003.44
2022-12-15T11:33:41.168Z,1003.44
2022-12-15T11:34:41.138Z,1003.40
2022-12-15T11:35:41.138Z,1003.39
2022-12-15T11:36:41.078Z,1003.43
2022-12-15T11:37:41.059Z,1003.36
2022-12-15T11:38:41.064Z,1003.44
2022-12-15T11:39:40.987Z,1003.42
2022-12-15T11:40:40.958Z,1003.37
2022-12-15T11:41:40.922Z,1003.38
2022-12-15T11:42:40.891Z,1003.36
2022-12-15T11:43:40.863Z,1003.37
2022-12-15T11:44:40.858Z,1003.35
2022-12-15T11:45:41.069Z,1003.35
2022-12-15T11:46:40.778Z,1003.37
2022-12-15T11:47:40.765Z,1003.36
2022-12-15T11:48:40.718Z,1003.34
2022-12-15T11:49:41.500Z,1003.41
2022-12-15T11:50:40.654Z,1003.41
2022-12-15T11:51:40.621Z,1003.38
2022-12-15T11:52:40.592Z,1003.39
2022-12-15T11:53:40.563Z,1003.37
2022-12-15T11:54:40.538Z,1003.34
2022-12-15T11:55:41.640Z,1003.35
2022-12-15T11:56:40.469Z,1003.33
2022-12-15T11:57:40.439Z,1003.34
2022-12-15T11:58:40.413Z,1003.31
2022-12-15T11:59:40.377Z,1003.33
2022-12-15T12:00:40.365Z,1003.33
2022-12-15T12:01:45.484Z,1003.37
2022-12-15T12:02:40.406Z,1003.34
2022-12-15T12:03:40.268Z,1003.33
2022-12-15T12:04:40.227Z,1003.34
2022-12-15T12:05:40.192Z,1003.36
2022-12-15T12:06:40.168Z,1003.35
2022-12-15T12:07:42.155Z,1003.35